St. Catharines Third Ave

*Note: All times are displayed in the local standard time of the station location.
**Rain - Equipment is designed to accurately record liquid precipitation; under conditions when precipitation is not in liquid form, the data displayed may not properly reflect rainfall values.

Date Max Temp
(°C)
Min Temp
(°C)
Avg Temp
(°C)
Rain (mm) Avg RH (%)
Mon, Apr 23, 2018 20.1 -1.8 7.0 0.0 66.3
Sun, Apr 22, 2018 17.0 -2.6 7.3 0.0 53.2
Sat, Apr 21, 2018 14.4 -3.8 5.3 0.0 58.7
Fri, Apr 20, 2018 8.4 -1.8 3.0 0.0 60.9
Thu, Apr 19, 2018 4.4 0.8 2.3 0.0 67.3
Wed, Apr 18, 2018 4.8 0.6 2.4 0.0 75.9
Tue, Apr 17, 2018 1.9 -0.8 0.7 0.2 76.0
DateTime Avg Temp (°C) Rain (mm) RH (%)
Tue, Apr 24, 2018 18:00 12.9 0.6 80.8
Tue, Apr 24, 2018 17:00 14.4 0.0 65.3
Tue, Apr 24, 2018 16:00 16.1 0.0 51.0
Tue, Apr 24, 2018 15:00 17.7 0.0 41.0
Tue, Apr 24, 2018 14:00 18.6 0.0 37.5
Tue, Apr 24, 2018 13:00 18.1 0.0 38.5
Tue, Apr 24, 2018 12:00 16.4 0.0 41.5
Tue, Apr 24, 2018 11:00 14.6 0.0 53.0
Tue, Apr 24, 2018 10:00 14.0 0.0 59.3
Tue, Apr 24, 2018 09:00 13.9 0.0 58.3
Tue, Apr 24, 2018 08:00 12.3 0.0 60.8
Tue, Apr 24, 2018 07:00 9.2 0.0 75.5
Tue, Apr 24, 2018 06:00 9.3 0.0 73.0
Tue, Apr 24, 2018 05:00 6.3 0.0 79.3
Tue, Apr 24, 2018 04:00 4.0 0.0 89.5
Tue, Apr 24, 2018 03:00 3.9 0.0 90.0
Tue, Apr 24, 2018 02:00 4.1 0.0 86.5
Tue, Apr 24, 2018 01:00 4.1 0.0 84.3
Tue, Apr 24, 2018 00:00 4.1 0.0 83.5
Mon, Apr 23, 2018 23:00 4.7 0.0 80.0
Mon, Apr 23, 2018 22:00 5.3 0.0 75.8
Mon, Apr 23, 2018 21:00 5.7 0.0 73.3
Mon, Apr 23, 2018 20:00 6.9 0.0 66.3
Mon, Apr 23, 2018 19:00 8.4 0.0 61.0
Mon, Apr 23, 2018 18:00 9.7 0.0 56.8
Mon, Apr 23, 2018 17:00 13.4 0.0 50.0
Mon, Apr 23, 2018 16:00 19.5 0.0 28.8
Mon, Apr 23, 2018 15:00 19.4 0.0 26.0
Mon, Apr 23, 2018 14:00 16.1 0.0 32.8
Mon, Apr 23, 2018 13:00 13.9 0.0 37.0
Mon, Apr 23, 2018 12:00 13.3 0.0 39.5
Mon, Apr 23, 2018 11:00 11.0 0.0 52.8
Mon, Apr 23, 2018 10:00 9.6 0.0 52.5
Mon, Apr 23, 2018 09:00 6.4 0.0 68.0
Mon, Apr 23, 2018 08:00 2.4 0.0 78.0
Mon, Apr 23, 2018 07:00 -1.5 0.0 94.5
Mon, Apr 23, 2018 06:00 -1.7 0.0 96.0
Mon, Apr 23, 2018 05:00 -1.0 0.0 92.8
Mon, Apr 23, 2018 04:00 -0.5 0.0 92.0
Mon, Apr 23, 2018 03:00 0.1 0.0 89.0
Mon, Apr 23, 2018 02:00 1.0 0.0 83.8
Mon, Apr 23, 2018 01:00 1.9 0.0 80.5
Mon, Apr 23, 2018 00:00 4.7 0.0 63.5
Sun, Apr 22, 2018 23:00 4.9 0.0 61.5
Sun, Apr 22, 2018 22:00 6.3 0.0 61.5
Sun, Apr 22, 2018 21:00 9.5 0.0 43.0
Sun, Apr 22, 2018 20:00 14.1 0.0 26.5
Sun, Apr 22, 2018 19:00 16.4 0.0 20.0


asterix Register now to access more data! asterix